Terminal Aerodrome Forecast
Issued by NWS Amarillo, TX

Home | Current Version | Previous Version | Text Only | Print | Product List | Glossary On
Versions: 1 2 3 4 5 6 7 8 9 10 11 12 13
699
FTUS44 KAMA 130524
TAFAMA
TAF
KAMA 130524Z 1306/1406 26013KT P6SM SKC
     FM131600 36018G28KT P6SM FEW300
     FM132300 02009KT P6SM SKC=

USA.gov is the U.S. government's official web portal to all federal, state and local government web resources and services.